Time;durP1;ratioP1;P1;durP2;ratioP2;P2;SDS_P1;SDS_P2;PMS_P1;PMS_P2;Temp;Humidity;BMP_temperature;BMP_pressure;BME280_temperature;BME280_humidity;BME280_pressure;Samples;Min_cycle;Max_cycle;Signal;HPM_P1;HPM_P2
2021/09/26 00:00:20;;;;;;;16.88;14.50;;;16.70;79.80;;;;;;5034470;28;20509;-71
2021/09/26 00:02:46;;;;;;;19.67;14.18;;;16.60;79.80;;;;;;5031102;28;20116;-72
2021/09/26 00:05:12;;;;;;;17.83;13.25;;;16.60;80.00;;;;;;5049941;28;20120;-72
2021/09/26 00:07:39;;;;;;;15.88;13.25;;;16.60;79.90;;;;;;5042894;28;20072;-75
2021/09/26 00:10:07;;;;;;;15.77;12.95;;;16.50;79.80;;;;;;5037610;28;20036;-76
2021/09/26 00:12:33;;;;;;;15.05;13.15;;;16.50;79.80;;;;;;5047970;28;20537;-75
2021/09/26 00:14:59;;;;;;;17.13;13.40;;;16.50;79.90;;;;;;5047990;28;20028;-75
2021/09/26 00:17:25;;;;;;;16.00;13.93;;;16.50;80.00;;;;;;5039355;28;20075;-75
2021/09/26 00:19:51;;;;;;;17.08;14.40;;;16.50;80.00;;;;;;5027238;28;20025;-76
2021/09/26 00:22:17;;;;;;;16.10;13.18;;;16.40;80.10;;;;;;5047403;28;20068;-75
2021/09/26 00:24:43;;;;;;;17.23;13.98;;;16.40;80.00;;;;;;5029905;28;20467;-75
2021/09/26 00:27:10;;;;;;;15.73;13.20;;;16.40;80.10;;;;;;5049761;28;20395;-76
2021/09/26 00:29:37;;;;;;;18.77;12.95;;;16.40;80.00;;;;;;5042107;28;20041;-76
2021/09/26 00:32:06;;;;;;;15.88;12.95;;;16.40;80.00;;;;;;5028693;28;20506;-75
2021/09/26 00:34:31;;;;;;;16.38;13.10;;;16.40;80.00;;;;;;5038129;28;20033;-75
2021/09/26 00:36:58;;;;;;;16.08;13.35;;;16.40;79.90;;;;;;5045351;28;20031;-75
2021/09/26 00:39:23;;;;;;;17.05;13.35;;;16.40;79.90;;;;;;5025781;28;20033;-75
2021/09/26 00:41:49;;;;;;;16.35;13.48;;;16.30;79.80;;;;;;5047813;28;20394;-75
2021/09/26 00:44:16;;;;;;;18.95;14.75;;;16.30;79.90;;;;;;5040466;28;20040;-76
2021/09/26 00:46:42;;;;;;;19.23;14.18;;;16.30;80.10;;;;;;5049021;28;20029;-75
2021/09/26 00:49:08;;;;;;;18.35;14.70;;;16.30;80.10;;;;;;5049863;28;20028;-76
2021/09/26 00:51:34;;;;;;;16.45;13.35;;;16.30;80.20;;;;;;5032417;28;20487;-76
2021/09/26 00:54:00;;;;;;;17.30;13.65;;;16.30;80.10;;;;;;5030844;28;20044;-76
2021/09/26 00:56:26;;;;;;;17.95;13.13;;;16.20;80.00;;;;;;5031040;28;20499;-75
2021/09/26 00:58:54;;;;;;;19.17;13.90;;;16.20;80.00;;;;;;5031249;28;20051;-76
2021/09/26 01:01:20;;;;;;;15.90;13.85;;;16.20;80.10;;;;;;5033440;28;20058;-75
2021/09/26 01:03:46;;;;;;;15.60;13.35;;;16.20;80.00;;;;;;5048747;28;20088;-72
2021/09/26 01:06:49;;;;;;;16.25;13.82;;;16.10;79.80;;;;;;5026032;28;21080;-72
2021/09/26 01:09:27;;;;;;;18.92;14.38;;;16.10;80.00;;;;;;5049274;28;20438;-72
2021/09/26 01:12:34;;;;;;;16.45;13.50;;;16.10;79.90;;;;;;5046472;28;20466;-72
2021/09/26 01:15:15;;;;;;;16.63;14.18;;;16.00;79.90;;;;;;5038797;28;20105;-72
2021/09/26 01:17:49;;;;;;;17.92;13.65;;;16.00;80.10;;;;;;5031271;28;20023;-72
2021/09/26 01:20:42;;;;;;;16.15;13.30;;;16.00;79.80;;;;;;5031766;28;20110;-75
2021/09/26 01:23:33;;;;;;;16.05;13.43;;;16.00;79.90;;;;;;5047930;28;20025;-75
2021/09/26 01:26:35;;;;;;;15.25;13.35;;;16.00;79.80;;;;;;5047197;28;20039;-76
2021/09/26 01:29:38;;;;;;;17.63;13.20;;;15.90;79.80;;;;;;5047494;28;20033;-75
2021/09/26 01:32:08;;;;;;;18.80;13.45;;;15.90;79.60;;;;;;5045404;28;20037;-75
2021/09/26 01:34:45;;;;;;;15.95;13.95;;;15.90;79.70;;;;;;5045793;28;20017;-75
2021/09/26 01:37:26;;;;;;;16.38;13.73;;;15.80;79.70;;;;;;5048443;28;20029;-75
2021/09/26 01:39:58;;;;;;;15.95;13.55;;;15.80;79.80;;;;;;5029732;28;20116;-75
2021/09/26 01:42:27;;;;;;;16.63;13.52;;;15.80;79.80;;;;;;5043941;28;20033;-75
2021/09/26 01:44:59;;;;;;;15.77;13.85;;;15.80;79.70;;;;;;5032271;28;20033;-75
2021/09/26 01:47:59;;;;;;;16.45;13.73;;;15.80;79.50;;;;;;5047999;28;20064;-75
2021/09/26 01:50:26;;;;;;;18.85;13.95;;;15.70;79.50;;;;;;5045511;28;20513;-75
2021/09/26 01:52:54;;;;;;;16.45;13.60;;;15.70;79.60;;;;;;5048325;28;20033;-75
2021/09/26 01:55:26;;;;;;;18.00;14.20;;;15.70;79.60;;;;;;5030239;28;20075;-72
2021/09/26 01:57:54;;;;;;;18.70;14.27;;;15.60;79.50;;;;;;5046715;28;20083;-71
2021/09/26 02:00:20;;;;;;;17.42;14.02;;;15.60;79.70;;;;;;5047546;28;20112;-71
2021/09/26 02:02:49;;;;;;;15.77;13.07;;;15.60;79.80;;;;;;5043802;28;20115;-72
2021/09/26 02:05:18;;;;;;;17.77;14.10;;;15.60;79.70;;;;;;5049293;28;20056;-71
2021/09/26 02:07:48;;;;;;;20.35;13.20;;;15.60;79.70;;;;;;5030925;28;20065;-72
2021/09/26 02:10:17;;;;;;;18.05;13.52;;;15.60;79.90;;;;;;5046387;28;20040;-72
2021/09/26 02:12:46;;;;;;;15.55;12.63;;;15.50;79.70;;;;;;5044245;28;20099;-72
2021/09/26 02:15:19;;;;;;;15.70;13.57;;;15.50;79.70;;;;;;5046483;28;20036;-72
2021/09/26 02:17:47;;;;;;;15.57;13.50;;;15.50;80.30;;;;;;5048441;28;20032;-72
2021/09/26 02:20:15;;;;;;;17.38;13.90;;;15.50;79.80;;;;;;5047607;28;20434;-72
2021/09/26 02:22:41;;;;;;;15.88;13.35;;;15.50;79.90;;;;;;5047269;28;20360;-71
2021/09/26 02:25:08;;;;;;;17.02;14.32;;;15.50;79.70;;;;;;5044830;28;20029;-72
2021/09/26 02:27:41;;;;;;;18.85;14.07;;;15.50;79.70;;;;;;5046538;28;20032;-72
2021/09/26 02:30:07;;;;;;;;;;;15.50;79.80;;;;;;5045933;28;20499;-71
2021/09/26 02:32:33;;;;;;;16.02;13.50;;;15.40;79.70;;;;;;5045815;28;19912;-71
2021/09/26 02:34:59;;;;;;;15.95;13.32;;;15.40;79.70;;;;;;5046731;28;20052;-75
2021/09/26 02:37:25;;;;;;;16.35;13.38;;;15.40;79.80;;;;;;5028097;28;20041;-75
2021/09/26 02:39:52;;;;;;;19.65;14.13;;;15.40;79.90;;;;;;5027346;28;20405;-76
2021/09/26 02:42:29;;;;;;;16.80;14.00;;;15.30;79.90;;;;;;5043919;28;20048;-75
2021/09/26 02:45:17;;;;;;;16.55;13.45;;;15.30;80.70;;;;;;5045780;28;20434;-75
2021/09/26 02:47:50;;;;;;;16.45;13.40;;;15.30;80.00;;;;;;5049401;28;20053;-75
2021/09/26 02:50:17;;;;;;;16.25;13.13;;;15.30;79.90;;;;;;5029713;28;20085;-75
2021/09/26 02:52:44;;;;;;;15.63;13.10;;;15.30;80.00;;;;;;5042590;28;20112;-71
2021/09/26 02:55:25;;;;;;;17.55;14.30;;;15.20;80.20;;;;;;5044287;28;20024;-74
2021/09/26 02:57:51;;;;;;;17.67;14.50;;;15.20;80.20;;;;;;5012561;28;20040;-75
2021/09/26 03:00:26;;;;;;;18.10;13.73;;;15.20;80.30;;;;;;5045460;28;20083;-75
2021/09/26 03:02:51;;;;;;;17.13;13.93;;;15.20;80.30;;;;;;5029176;28;20040;-75
2021/09/26 03:05:17;;;;;;;17.25;14.00;;;15.20;80.40;;;;;;5045840;28;20033;-72
2021/09/26 03:07:47;;;;;;;16.83;14.27;;;15.20;80.50;;;;;;5047260;28;20399;-75
2021/09/26 03:10:13;;;;;;;15.38;13.05;;;15.20;80.50;;;;;;5030604;28;20066;-75
2021/09/26 03:12:38;;;;;;;18.98;14.35;;;15.20;80.50;;;;;;5045818;28;20480;-75
2021/09/26 03:15:04;;;;;;;17.15;14.10;;;15.20;80.60;;;;;;5011878;28;20029;-75
2021/09/26 03:17:32;;;;;;;19.08;15.05;;;15.20;80.70;;;;;;5046463;28;20376;-75
2021/09/26 03:19:57;;;;;;;15.40;13.80;;;15.20;80.60;;;;;;5027880;28;20025;-71
2021/09/26 03:22:23;;;;;;;18.23;14.02;;;15.20;80.60;;;;;;5028760;28;20035;-72
2021/09/26 03:24:52;;;;;;;18.23;14.63;;;15.20;80.60;;;;;;5028696;28;20029;-71
2021/09/26 03:27:18;;;;;;;18.30;13.68;;;15.10;80.50;;;;;;5031456;28;20048;-71
2021/09/26 03:29:46;;;;;;;16.02;14.00;;;15.10;80.60;;;;;;5046086;28;20398;-75
2021/09/26 03:32:12;;;;;;;17.92;14.00;;;15.10;80.60;;;;;;5049751;28;20076;-75
2021/09/26 03:34:38;;;;;;;15.75;13.85;;;15.10;80.80;;;;;;5034472;28;20052;-75
2021/09/26 03:37:08;;;;;;;19.05;14.40;;;15.10;80.90;;;;;;5049328;28;20017;-72
2021/09/26 03:39:35;;;;;;;16.73;13.57;;;15.10;81.10;;;;;;5014989;28;20031;-71
2021/09/26 03:42:00;;;;;;;16.67;14.25;;;15.10;81.20;;;;;;5050118;28;20321;-71
2021/09/26 03:44:26;;;;;;;17.55;14.00;;;15.10;81.40;;;;;;5050822;28;20489;-71
2021/09/26 03:46:53;;;;;;;17.48;14.90;;;15.10;81.50;;;;;;5050106;28;20048;-71
2021/09/26 03:49:19;;;;;;;16.30;13.93;;;15.10;81.60;;;;;;5048550;28;20506;-71
2021/09/26 03:51:48;;;;;;;16.15;13.95;;;15.10;81.50;;;;;;5051899;28;20042;-71
2021/09/26 03:54:15;;;;;;;16.90;13.68;;;15.10;81.50;;;;;;5048582;28;20340;-71
2021/09/26 03:56:40;;;;;;;17.02;14.05;;;15.10;81.50;;;;;;5044468;28;20025;-71
2021/09/26 03:59:11;;;;;;;19.33;14.98;;;15.10;81.70;;;;;;5029743;28;20019;-71
2021/09/26 04:01:37;;;;;;;17.85;14.52;;;15.10;82.00;;;;;;5045764;28;20029;-75
2021/09/26 04:04:03;;;;;;;16.70;13.30;;;15.10;82.10;;;;;;5034043;28;20052;-75
2021/09/26 04:06:29;;;;;;;16.40;14.10;;;15.10;82.10;;;;;;5051722;28;20037;-75
2021/09/26 04:08:54;;;;;;;16.50;13.75;;;15.10;82.10;;;;;;5047361;28;20368;-75
2021/09/26 04:11:21;;;;;;;17.98;14.82;;;15.10;82.30;;;;;;5049185;28;20032;-75
2021/09/26 04:13:48;;;;;;;16.73;13.98;;;15.10;82.30;;;;;;5049043;28;20036;-75
2021/09/26 04:16:13;;;;;;;18.08;14.05;;;15.10;82.50;;;;;;5047199;28;20064;-75
2021/09/26 04:18:39;;;;;;;17.20;13.93;;;15.10;82.60;;;;;;5048660;28;20048;-75
2021/09/26 04:21:05;;;;;;;17.77;13.23;;;15.10;82.60;;;;;;5030888;28;20048;-75
2021/09/26 04:23:32;;;;;;;18.88;14.50;;;15.10;82.70;;;;;;5014390;28;20036;-75
2021/09/26 04:25:58;;;;;;;17.92;14.30;;;15.10;82.80;;;;;;5050055;28;20021;-75
2021/09/26 04:28:24;;;;;;;17.15;14.43;;;15.10;82.70;;;;;;5049399;28;20040;-75
2021/09/26 04:30:49;;;;;;;17.50;14.88;;;15.10;82.80;;;;;;5029702;28;20084;-75
2021/09/26 04:33:19;;;;;;;15.35;13.13;;;15.10;82.80;;;;;;5047589;28;20029;-75
2021/09/26 04:35:48;;;;;;;17.35;14.57;;;15.10;82.80;;;;;;5030932;28;20028;-75
2021/09/26 04:38:14;;;;;;;16.15;14.00;;;15.10;82.80;;;;;;5030700;28;20025;-75
2021/09/26 04:40:41;;;;;;;16.17;14.48;;;15.10;82.90;;;;;;5048822;28;20028;-75
2021/09/26 04:43:07;;;;;;;17.33;14.23;;;15.10;82.90;;;;;;5046201;28;20033;-72
2021/09/26 04:45:33;;;;;;;18.38;13.80;;;15.10;83.00;;;;;;5048819;28;20033;-75
2021/09/26 04:47:58;;;;;;;17.17;14.38;;;15.10;83.10;;;;;;5014102;28;20471;-75
2021/09/26 04:50:24;;;;;;;15.98;13.52;;;15.10;83.20;;;;;;5031845;28;20055;-75
2021/09/26 04:52:50;;;;;;;18.52;15.55;;;15.20;83.30;;;;;;5029477;28;20040;-75
2021/09/26 04:55:16;;;;;;;20.42;15.65;;;15.20;83.40;;;;;;5048513;28;20430;-75
2021/09/26 04:57:42;;;;;;;20.90;14.85;;;15.10;83.50;;;;;;5050153;28;20067;-75
2021/09/26 05:00:12;;;;;;;19.25;16.23;;;15.10;83.60;;;;;;5030139;28;20024;-75
2021/09/26 05:02:38;;;;;;;18.35;15.63;;;15.10;84.30;;;;;;5046743;28;20095;-75
2021/09/26 05:05:07;;;;;;;22.55;15.68;;;15.10;83.90;;;;;;5048112;28;20029;-75
2021/09/26 05:07:39;;;;;;;20.17;16.77;;;15.10;84.20;;;;;;5049546;28;20602;-75
2021/09/26 05:10:08;;;;;;;20.25;16.10;;;15.10;84.30;;;;;;5030350;28;20071;-75
2021/09/26 05:12:37;;;;;;;19.10;15.77;;;15.10;84.40;;;;;;5033936;28;20029;-75
2021/09/26 05:15:04;;;;;;;18.83;15.32;;;15.20;84.60;;;;;;5047126;28;20104;-75
2021/09/26 05:17:34;;;;;;;20.55;16.65;;;15.20;84.70;;;;;;5048777;28;20027;-75
2021/09/26 05:20:00;;;;;;;21.90;17.30;;;15.20;84.90;;;;;;5029028;28;20490;-75
2021/09/26 05:22:26;;;;;;;21.55;17.30;;;15.20;85.00;;;;;;5031530;28;20048;-75
2021/09/26 05:24:52;;;;;;;19.73;17.05;;;15.20;85.10;;;;;;5046655;28;20040;-75
2021/09/26 05:27:18;;;;;;;22.00;17.00;;;15.30;85.10;;;;;;5014966;28;20025;-75
2021/09/26 05:29:44;;;;;;;23.50;17.88;;;15.30;85.20;;;;;;5029773;28;20025;-72
2021/09/26 05:32:10;;;;;;;24.08;19.13;;;15.30;85.30;;;;;;5047828;28;20040;-72
2021/09/26 05:34:37;;;;;;;21.90;17.27;;;15.30;85.40;;;;;;5048189;28;20383;-71
2021/09/26 05:37:03;;;;;;;21.20;17.05;;;15.30;85.50;;;;;;5050363;28;20423;-71
2021/09/26 05:39:31;;;;;;;19.35;16.83;;;15.40;85.70;;;;;;5030853;28;20207;-75
2021/09/26 05:41:57;;;;;;;19.67;17.13;;;15.40;85.90;;;;;;5031016;28;20401;-75
2021/09/26 05:44:23;;;;;;;23.52;18.40;;;15.40;86.00;;;;;;5048121;28;20041;-75
2021/09/26 05:46:52;;;;;;;20.58;16.92;;;15.40;86.10;;;;;;5048979;28;20503;-72
2021/09/26 05:49:17;;;;;;;23.30;17.88;;;15.40;86.30;;;;;;5047597;28;20067;-72
2021/09/26 05:51:43;;;;;;;22.80;18.85;;;15.40;86.30;;;;;;5012341;28;20029;-71
2021/09/26 05:54:09;;;;;;;23.15;19.00;;;15.40;86.40;;;;;;5043307;28;20025;-71
2021/09/26 05:56:37;;;;;;;20.10;17.38;;;15.50;86.50;;;;;;5029963;28;20025;-71
2021/09/26 05:59:03;;;;;;;25.13;17.95;;;15.50;86.50;;;;;;5013361;28;20020;-71
2021/09/26 06:01:29;;;;;;;21.67;17.00;;;15.50;86.50;;;;;;5026814;28;20067;-71
2021/09/26 06:03:54;;;;;;;24.13;18.63;;;15.50;86.50;;;;;;5050251;28;20037;-71
2021/09/26 06:06:20;;;;;;;22.80;17.58;;;15.50;86.70;;;;;;5046012;28;20510;-71
2021/09/26 06:08:46;;;;;;;22.20;17.38;;;15.50;86.80;;;;;;5049283;28;20029;-71
2021/09/26 06:11:17;;;;;;;23.55;19.23;;;15.50;86.90;;;;;;5025599;28;20479;-71
2021/09/26 06:13:42;;;;;;;22.67;18.30;;;15.50;86.90;;;;;;5047543;28;20061;-71
2021/09/26 06:16:08;;;;;;;24.83;18.63;;;15.60;87.00;;;;;;5048486;28;20452;-71
2021/09/26 06:18:34;;;;;;;25.23;19.15;;;15.60;87.10;;;;;;5047477;28;20124;-71
2021/09/26 06:20:59;;;;;;;21.65;17.08;;;15.60;87.10;;;;;;5046211;28;20048;-72
2021/09/26 06:23:25;;;;;;;21.55;17.63;;;15.60;87.20;;;;;;5028744;28;20090;-71
2021/09/26 06:25:51;;;;;;;22.13;18.83;;;15.60;87.30;;;;;;5048858;28;20036;-71
2021/09/26 06:28:17;;;;;;;20.90;18.38;;;15.60;87.30;;;;;;5046465;28;20039;-71
2021/09/26 06:30:43;;;;;;;25.25;18.83;;;15.60;87.40;;;;;;5042919;28;20464;-71
2021/09/26 06:33:08;;;;;;;21.48;18.05;;;15.70;88.10;;;;;;5045141;28;20504;-74
2021/09/26 06:35:34;;;;;;;22.77;17.98;;;15.70;87.60;;;;;;5041733;28;20025;-71
2021/09/26 06:38:00;;;;;;;21.35;17.17;;;15.70;87.70;;;;;;5047846;28;20086;-71
2021/09/26 06:40:27;;;;;;;21.10;17.48;;;15.70;87.70;;;;;;5037562;28;20025;-72
2021/09/26 06:42:53;;;;;;;21.38;18.83;;;15.70;87.80;;;;;;5046003;28;20155;-71
2021/09/26 06:45:18;;;;;;;21.73;18.10;;;15.80;87.90;;;;;;5044818;28;20538;-71
2021/09/26 06:47:44;;;;;;;22.63;17.35;;;15.80;87.90;;;;;;5046011;28;20053;-73
2021/09/26 06:50:11;;;;;;;21.55;17.65;;;15.80;88.00;;;;;;5012154;28;20041;-74
2021/09/26 06:52:37;;;;;;;18.88;16.80;;;15.80;88.10;;;;;;5039854;28;20134;-74
2021/09/26 06:55:04;;;;;;;18.25;16.00;;;15.80;88.10;;;;;;5044797;28;20368;-74
2021/09/26 06:57:30;;;;;;;22.10;17.70;;;15.90;88.20;;;;;;5026178;28;20037;-74
2021/09/26 06:59:56;;;;;;;18.90;16.70;;;15.90;88.20;;;;;;5028438;28;20475;-74
2021/09/26 07:02:22;;;;;;;19.73;17.08;;;16.00;88.20;;;;;;5042663;28;20060;-71
2021/09/26 07:04:53;;;;;;;22.42;17.83;;;16.00;88.20;;;;;;5047360;28;20506;-71
2021/09/26 07:07:22;;;;;;;20.70;17.65;;;16.00;88.30;;;;;;5044017;28;20033;-71
2021/09/26 07:09:51;;;;;;;22.85;19.23;;;16.10;88.30;;;;;;5045502;28;20037;-71
2021/09/26 07:12:18;;;;;;;23.77;18.13;;;16.10;89.00;;;;;;5050312;28;20025;-71
2021/09/26 07:14:44;;;;;;;19.08;16.67;;;16.10;88.70;;;;;;5048344;28;20471;-71
2021/09/26 07:17:10;;;;;;;21.20;17.42;;;16.20;88.40;;;;;;5049396;28;20099;-71
2021/09/26 07:19:36;;;;;;;20.77;17.38;;;16.20;88.50;;;;;;5034744;28;20029;-71
2021/09/26 07:22:03;;;;;;;25.40;18.05;;;16.20;88.40;;;;;;5047866;28;20025;-71
2021/09/26 07:24:29;;;;;;;20.13;17.25;;;16.30;88.60;;;;;;5032901;28;20041;-71
2021/09/26 07:26:55;;;;;;;21.92;18.10;;;16.30;88.60;;;;;;5043650;28;20040;-71
2021/09/26 07:29:21;;;;;;;19.10;17.13;;;16.30;88.60;;;;;;5049613;28;20406;-72
2021/09/26 07:31:47;;;;;;;21.67;17.40;;;16.30;88.60;;;;;;5046027;28;20036;-71
2021/09/26 07:34:12;;;;;;;22.65;17.13;;;16.40;88.70;;;;;;5031578;28;20111;-75
2021/09/26 07:36:38;;;;;;;20.35;17.10;;;16.40;88.80;;;;;;5051609;28;20049;-75
2021/09/26 07:39:05;;;;;;;20.40;17.38;;;16.40;88.70;;;;;;5016950;28;20122;-71
2021/09/26 07:41:31;;;;;;;20.33;17.00;;;16.40;88.80;;;;;;5048319;28;20044;-71
2021/09/26 07:43:58;;;;;;;20.65;18.40;;;16.50;88.90;;;;;;5046678;28;20399;-73
2021/09/26 07:46:23;;;;;;;18.17;16.25;;;16.50;89.10;;;;;;5006475;28;20034;-75
2021/09/26 07:48:49;;;;;;;19.42;17.33;;;16.50;89.00;;;;;;5039756;28;20059;-74
2021/09/26 07:51:15;;;;;;;18.85;16.80;;;16.50;89.20;;;;;;5027731;28;20044;-74
2021/09/26 07:53:44;;;;;;;18.42;16.48;;;16.50;89.10;;;;;;5047430;28;20463;-74
2021/09/26 07:56:10;;;;;;;20.98;17.85;;;16.50;89.20;;;;;;5032453;28;20033;-70
2021/09/26 07:58:39;;;;;;;17.23;15.18;;;16.50;89.10;;;;;;5048809;28;20029;-71
2021/09/26 08:01:12;;;;;;;18.70;16.77;;;16.60;89.20;;;;;;5023166;28;20036;-71
2021/09/26 08:03:38;;;;;;;18.58;16.45;;;16.70;89.40;;;;;;5031308;28;20037;-71
2021/09/26 08:06:05;;;;;;;20.02;17.15;;;16.70;89.10;;;;;;5032140;28;20127;-70
2021/09/26 08:08:31;;;;;;;19.27;16.35;;;16.80;89.10;;;;;;5028493;28;20033;-70
2021/09/26 08:10:56;;;;;;;23.40;18.08;;;16.80;89.10;;;;;;5030152;28;20664;-71
2021/09/26 08:13:24;;;;;;;18.23;16.33;;;16.90;89.20;;;;;;5005556;28;20415;-71
2021/09/26 08:15:50;;;;;;;17.42;15.63;;;16.90;89.30;;;;;;5045725;28;20442;-70
2021/09/26 08:18:16;;;;;;;18.00;16.23;;;17.00;89.20;;;;;;5051660;28;20025;-71
2021/09/26 08:20:42;;;;;;;20.13;16.15;;;17.00;89.20;;;;;;5047316;28;20064;-70
2021/09/26 08:23:17;;;;;;;15.93;14.30;;;17.10;89.00;;;;;;5054581;28;20025;-70
2021/09/26 08:25:50;;;;;;;16.92;15.13;;;17.10;89.10;;;;;;5050503;28;20044;-71
2021/09/26 08:28:19;;;;;;;17.45;14.82;;;17.10;89.10;;;;;;5045770;28;20438;-71
2021/09/26 08:30:49;;;;;;;17.23;14.77;;;17.20;89.10;;;;;;5049127;28;20646;-72
2021/09/26 08:33:14;;;;;;;16.33;14.60;;;17.30;89.00;;;;;;5031557;28;20119;-72
2021/09/26 08:35:48;;;;;;;18.20;14.77;;;17.40;89.00;;;;;;5038015;28;20399;-72
2021/09/26 08:38:34;;;;;;;16.30;14.50;;;17.50;89.00;;;;;;5033009;28;20116;-72
2021/09/26 08:41:04;;;;;;;16.60;14.90;;;17.60;89.00;;;;;;5049820;28;20032;-72
2021/09/26 08:43:35;;;;;;;17.02;15.15;;;17.70;88.80;;;;;;5046403;28;20044;-72
2021/09/26 08:46:01;;;;;;;17.37;15.50;;;17.80;88.70;;;;;;5048400;28;20033;-72
2021/09/26 08:48:35;;;;;;;15.90;14.30;;;17.90;88.50;;;;;;5046627;28;20581;-72
2021/09/26 08:51:14;;;;;;;16.92;14.93;;;18.00;88.00;;;;;;5039431;28;20475;-70
2021/09/26 08:54:00;;;;;;;17.75;15.88;;;18.10;88.10;;;;;;5054898;28;20135;-73
2021/09/26 08:59:18;;;;;;;17.63;15.77;;;18.20;87.30;;;;;;5005499;28;20158;-73
2021/09/26 09:01:44;;;;;;;16.33;14.63;;;18.30;87.20;;;;;;5010718;28;20026;-71
2021/09/26 09:04:10;;;;;;;17.92;16.08;;;18.30;87.30;;;;;;5046654;28;20051;-69
2021/09/26 09:06:43;;;;;;;17.75;15.90;;;18.30;87.30;;;;;;5043748;28;20033;-72
2021/09/26 09:09:15;;;;;;;16.60;14.70;;;18.30;87.60;;;;;;5044062;28;20033;-70
2021/09/26 09:11:45;;;;;;;;;;;18.30;87.50;;;;;;5042174;28;20115;-69
2021/09/26 09:14:11;;;;;;;19.48;16.17;;;18.30;87.70;;;;;;5041811;28;20260;-71
2021/09/26 09:16:37;;;;;;;19.42;16.40;;;18.30;88.00;;;;;;5042682;28;20035;-69
2021/09/26 09:19:03;;;;;;;18.02;15.95;;;18.40;88.40;;;;;;5029928;28;20411;-70
2021/09/26 09:21:32;;;;;;;18.27;16.48;;;18.50;88.20;;;;;;5024908;28;21240;-69
2021/09/26 09:24:10;;;;;;;19.15;17.35;;;18.70;88.00;;;;;;5028128;28;20465;-70
2021/09/26 09:26:37;;;;;;;17.77;16.00;;;18.80;87.70;;;;;;5046833;28;20029;-71
2021/09/26 09:29:05;;;;;;;18.33;16.42;;;18.90;87.40;;;;;;5029896;28;20388;-69
2021/09/26 09:31:32;;;;;;;16.35;14.65;;;19.00;87.20;;;;;;5047700;28;20108;-70
2021/09/26 09:33:58;;;;;;;19.65;17.33;;;19.10;86.90;;;;;;5046409;28;20036;-70
2021/09/26 09:36:26;;;;;;;16.95;14.93;;;19.30;86.70;;;;;;5047803;28;20032;-70
2021/09/26 09:38:56;;;;;;;17.30;15.57;;;19.40;86.50;;;;;;5044039;28;20017;-70
2021/09/26 09:41:34;;;;;;;18.45;16.75;;;19.60;86.00;;;;;;5046985;28;20027;-70
2021/09/26 09:44:01;;;;;;;19.48;17.48;;;19.70;85.40;;;;;;5048579;28;20375;-71
2021/09/26 09:46:32;;;;;;;18.38;16.63;;;19.80;85.10;;;;;;5047197;28;20043;-72
2021/09/26 09:49:14;;;;;;;17.77;15.88;;;19.80;84.60;;;;;;5046373;28;20040;-72
2021/09/26 09:51:54;;;;;;;19.02;15.48;;;19.90;84.70;;;;;;5028155;28;20449;-70
2021/09/26 09:54:39;;;;;;;17.95;16.23;;;20.00;84.80;;;;;;5028762;28;20026;-70
2021/09/26 09:57:16;;;;;;;19.30;17.40;;;20.20;84.70;;;;;;5041971;28;20037;-70
2021/09/26 09:59:45;;;;;;;20.25;18.10;;;20.30;83.60;;;;;;5043857;28;20453;-70
2021/09/26 10:02:11;;;;;;;17.85;15.65;;;20.50;83.40;;;;;;5030508;28;20043;-70
2021/09/26 10:04:46;;;;;;;17.35;15.65;;;20.50;83.50;;;;;;5046423;28;20124;-70
2021/09/26 10:07:27;;;;;;;18.25;16.55;;;20.70;83.30;;;;;;5043304;28;20040;-71
2021/09/26 10:09:54;;;;;;;18.52;16.58;;;20.80;82.50;;;;;;5043945;28;20084;-70
2021/09/26 10:12:30;;;;;;;15.82;14.30;;;20.90;82.40;;;;;;5047099;28;20065;-71
2021/09/26 10:15:01;;;;;;;16.73;15.13;;;21.00;82.40;;;;;;5028581;28;20029;-70
2021/09/26 10:17:28;;;;;;;18.00;16.20;;;21.10;82.20;;;;;;5047413;28;20104;-71
2021/09/26 10:19:54;;;;;;;19.25;17.17;;;21.30;80.70;;;;;;5029332;28;20082;-71
2021/09/26 10:22:21;;;;;;;19.50;17.65;;;21.30;80.50;;;;;;5029359;28;20037;-70
2021/09/26 10:24:49;;;;;;;19.88;18.00;;;21.30;80.20;;;;;;5046254;28;20116;-71
2021/09/26 10:27:28;;;;;;;16.42;14.82;;;21.30;79.70;;;;;;5030042;28;20048;-71
2021/09/26 10:30:03;;;;;;;16.50;15.05;;;21.30;80.60;;;;;;5014506;28;20060;-70
2021/09/26 10:32:28;;;;;;;18.50;16.80;;;21.40;80.70;;;;;;5046609;28;20028;-70
2021/09/26 10:34:54;;;;;;;17.73;16.13;;;21.50;80.00;;;;;;5054055;28;20024;-70
2021/09/26 10:37:50;;;;;;;;;;;;;;;;;;;;;
2021/09/26 10:40:16;;;;;;;15.02;13.55;;;21.60;79.80;;;;;;5043916;28;20021;-72
2021/09/26 10:42:43;;;;;;;19.73;17.48;;;21.70;79.90;;;;;;5044264;28;20063;-71
2021/09/26 10:45:10;;;;;;;17.73;14.27;;;21.80;78.50;;;;;;5046902;28;20043;-72
2021/09/26 10:47:38;;;;;;;17.50;15.70;;;21.90;78.80;;;;;;5011405;28;20053;-72
2021/09/26 10:50:14;;;;;;;16.00;14.48;;;22.10;78.50;;;;;;5011133;28;20075;-72
2021/09/26 10:52:47;;;;;;;15.75;13.98;;;22.20;78.20;;;;;;5043156;28;20467;-72
2021/09/26 10:55:18;;;;;;;16.58;14.98;;;22.30;77.70;;;;;;5028345;28;20454;-73
2021/09/26 10:57:46;;;;;;;16.02;14.32;;;22.40;77.00;;;;;;5044899;28;20030;-72
2021/09/26 11:00:58;;;;;;;16.73;14.80;;;22.40;77.00;;;;;;5026185;28;20492;-68
2021/09/26 11:03:40;;;;;;;14.82;13.43;;;22.50;76.30;;;;;;5023706;28;20047;-68
2021/09/26 11:06:38;;;;;;;15.05;13.75;;;22.70;75.70;;;;;;5045050;28;20032;-71
2021/09/26 11:09:08;;;;;;;14.45;13.05;;;22.70;75.60;;;;;;5021129;28;20082;-71
2021/09/26 11:11:47;;;;;;;14.52;13.25;;;22.70;76.20;;;;;;5044707;28;20025;-70
2021/09/26 11:14:14;;;;;;;16.45;14.60;;;22.70;75.50;;;;;;5043953;28;20553;-69
2021/09/26 11:16:59;;;;;;;15.02;13.57;;;22.80;74.80;;;;;;5023157;28;20099;-71
2021/09/26 11:19:27;;;;;;;15.10;13.80;;;22.90;74.50;;;;;;5043361;28;20040;-72
2021/09/26 11:22:02;;;;;;;13.73;12.38;;;23.10;73.80;;;;;;5018326;28;20029;-71
2021/09/26 11:24:40;;;;;;;14.10;12.82;;;23.20;73.60;;;;;;5027620;28;20017;-71
2021/09/26 11:27:36;;;;;;;13.35;11.98;;;23.20;72.90;;;;;;5044476;28;20028;-68
2021/09/26 11:30:01;;;;;;;13.32;12.23;;;23.30;73.50;;;;;;5042011;28;20104;-71
2021/09/26 11:32:31;;;;;;;13.45;12.10;;;23.40;73.30;;;;;;5040569;28;20144;-69
2021/09/26 11:35:22;;;;;;;14.65;13.25;;;23.50;73.40;;;;;;5044021;28;20388;-69
2021/09/26 11:55:35;;;;;;;13.80;12.60;;;23.40;71.60;;;;;;5102132;27;20614;-72
2021/09/26 11:58:03;;;;;;;14.18;12.88;;;23.20;72.60;;;;;;5102164;28;20029;-73
2021/09/26 12:00:34;;;;;;;13.23;11.93;;;23.10;73.10;;;;;;5083125;28;20082;-75
2021/09/26 12:03:19;;;;;;;14.18;12.88;;;23.10;73.30;;;;;;5101709;28;20386;-73
2021/09/26 12:05:46;;;;;;;15.23;13.82;;;23.00;73.40;;;;;;5105034;28;20157;-71
2021/09/26 12:10:45;;;;;;;15.07;13.57;;;23.10;72.40;;;;;;5114904;27;20153;-71
2021/09/26 12:13:22;;;;;;;14.50;13.02;;;23.20;71.70;;;;;;5100646;28;20028;-70
2021/09/26 12:15:49;;;;;;;17.25;15.00;;;23.40;71.30;;;;;;5099624;28;20023;-71
2021/09/26 12:18:19;;;;;;;13.85;12.50;;;23.50;70.20;;;;;;5102182;28;20371;-71
2021/09/26 12:20:45;;;;;;;15.35;13.95;;;23.60;71.40;;;;;;5100922;28;20035;-71
2021/09/26 12:23:18;;;;;;;14.48;13.05;;;23.70;69.70;;;;;;5096530;28;20032;-69
2021/09/26 12:25:44;;;;;;;13.05;11.95;;;23.80;70.00;;;;;;5101547;28;20027;-75
2021/09/26 12:28:19;;;;;;;12.98;11.68;;;23.80;70.30;;;;;;5101379;28;20040;-72
2021/09/26 12:30:51;;;;;;;12.68;11.45;;;23.90;69.70;;;;;;5104739;28;20391;-72
2021/09/26 12:33:25;;;;;;;13.90;12.70;;;24.00;70.30;;;;;;5103140;28;20462;-70
2021/09/26 12:36:01;;;;;;;13.98;12.57;;;24.30;69.60;;;;;;5101100;28;20020;-70
2021/09/26 12:38:32;;;;;;;11.52;10.38;;;24.40;68.70;;;;;;5107348;28;20063;-72
2021/09/26 12:41:03;;;;;;;12.75;11.60;;;24.50;69.40;;;;;;5105224;28;20027;-71
2021/09/26 12:43:49;;;;;;;12.67;11.53;;;24.50;68.30;;;;;;5107602;27;20139;-71
2021/09/26 12:46:17;;;;;;;13.93;12.68;;;24.30;68.40;;;;;;5099971;28;20756;-71
2021/09/26 12:48:46;;;;;;;13.50;12.20;;;24.20;68.60;;;;;;5106812;28;20028;-72
2021/09/26 12:51:39;;;;;;;15.00;12.90;;;24.00;68.20;;;;;;5108064;28;20119;-71
2021/09/26 12:54:08;;;;;;;11.90;10.90;;;24.00;69.10;;;;;;5104652;28;20146;-71
2021/09/26 12:56:40;;;;;;;14.93;13.38;;;24.00;69.40;;;;;;5105560;28;20073;-69
2021/09/26 12:59:26;;;;;;;13.65;11.98;;;24.20;68.30;;;;;;5101786;28;20044;-70
2021/09/26 13:02:28;;;;;;;12.10;11.00;;;24.20;68.20;;;;;;5098501;28;20028;-69
2021/09/26 13:05:03;;;;;;;13.80;12.50;;;24.30;68.60;;;;;;5098508;28;20032;-70